Time;durP1;ratioP1;P1;durP2;ratioP2;P2;SDS_P1;SDS_P2;PMS_P1;PMS_P2;Temp;Humidity;BMP_temperature;BMP_pressure;BME280_temperature;BME280_humidity;BME280_pressure;Samples;Min_cycle;Max_cycle;Signal;HPM_P1;HPM_P2
2022/07/06 00:02:04;;;;;;;5.23;3.20;;;17.50;65.70;;;;;;4972850;28;20514;-91
2022/07/06 00:04:30;;;;;;;5.87;2.77;;;17.40;65.40;;;;;;4973325;28;20180;-90
2022/07/06 00:06:56;;;;;;;9.87;3.60;;;17.40;65.50;;;;;;4973556;28;20219;-91
2022/07/06 00:09:21;;;;;;;7.90;3.60;;;17.40;65.50;;;;;;4973528;28;20230;-90
2022/07/06 00:11:47;;;;;;;4.20;3.70;;;17.40;65.80;;;;;;4973081;28;20186;-90
2022/07/06 00:14:27;;;;;;;7.80;3.30;;;17.30;65.90;;;;;;4956816;28;20246;-90
2022/07/06 00:16:53;;;;;;;7.88;3.10;;;17.20;66.10;;;;;;4973349;28;20200;-90
2022/07/06 00:19:18;;;;;;;10.50;3.83;;;17.20;66.30;;;;;;4974178;28;20187;-90
2022/07/06 00:21:44;;;;;;;4.60;3.50;;;17.20;66.30;;;;;;4975865;28;20176;-90
2022/07/06 00:24:10;;;;;;;4.20;3.53;;;17.20;66.40;;;;;;4976933;28;20527;-91
2022/07/06 00:26:35;;;;;;;7.87;3.60;;;17.10;66.60;;;;;;4976732;28;20239;-90
2022/07/06 00:29:01;;;;;;;5.57;4.00;;;17.10;66.90;;;;;;4978127;28;20600;-90
2022/07/06 00:31:27;;;;;;;4.77;3.50;;;17.00;66.90;;;;;;4976883;28;20190;-90
2022/07/06 00:33:52;;;;;;;7.67;4.37;;;17.10;67.20;;;;;;4977059;28;20318;-90
2022/07/06 00:36:18;;;;;;;5.40;3.73;;;17.00;67.30;;;;;;4976832;28;20222;-90
2022/07/06 00:38:44;;;;;;;4.93;3.07;;;17.00;67.60;;;;;;4978272;28;20176;-90
2022/07/06 00:41:10;;;;;;;5.63;3.80;;;17.00;68.40;;;;;;4976950;28;20234;-90
2022/07/06 00:43:55;;;;;;;6.00;3.50;;;17.00;67.90;;;;;;4976768;28;20526;-90
2022/07/06 00:46:25;;;;;;;5.05;3.72;;;17.00;68.00;;;;;;4976824;28;20203;-90
2022/07/06 00:48:51;;;;;;;4.50;3.72;;;17.00;68.10;;;;;;4976530;28;20190;-90
2022/07/06 00:51:18;;;;;;;7.13;3.97;;;17.00;68.20;;;;;;4976263;28;20192;-90
2022/07/06 00:53:44;;;;;;;5.05;4.30;;;16.90;68.20;;;;;;4978259;28;20266;-90
2022/07/06 00:56:10;;;;;;;3.70;3.40;;;16.90;68.20;;;;;;4977870;28;20291;-90
2022/07/06 00:58:55;;;;;;;7.53;4.22;;;17.00;68.30;;;;;;4960211;28;20188;-90
2022/07/06 01:01:21;;;;;;;6.07;4.15;;;17.00;68.10;;;;;;4976039;28;20175;-90
2022/07/06 01:03:46;;;;;;;4.95;3.83;;;16.90;68.40;;;;;;4976622;28;20247;-90
2022/07/06 01:06:12;;;;;;;5.90;4.23;;;16.90;68.60;;;;;;4976298;28;20219;-91
2022/07/06 01:08:38;;;;;;;4.83;3.57;;;16.80;68.60;;;;;;4976570;28;20179;-90
2022/07/06 01:11:05;;;;;;;5.82;3.80;;;16.80;68.70;;;;;;4976986;28;20184;-90
2022/07/06 01:13:32;;;;;;;6.10;3.63;;;16.80;68.70;;;;;;4976416;28;20202;-91
2022/07/06 01:15:58;;;;;;;6.88;4.32;;;16.80;68.70;;;;;;4976362;28;20253;-90
2022/07/06 01:18:24;;;;;;;5.20;3.85;;;16.80;68.60;;;;;;4960463;28;20274;-90
2022/07/06 01:20:50;;;;;;;5.05;4.28;;;16.80;68.50;;;;;;4984997;28;20182;-91
2022/07/06 01:23:16;;;;;;;4.63;3.70;;;16.80;68.50;;;;;;4995094;28;20255;-89
2022/07/06 01:25:42;;;;;;;7.13;3.33;;;16.80;68.50;;;;;;4978386;28;20216;-90
2022/07/06 01:28:07;;;;;;;5.37;3.70;;;16.80;68.50;;;;;;4975658;28;20239;-91
2022/07/06 01:30:33;;;;;;;4.87;3.97;;;16.80;68.40;;;;;;4975544;28;20424;-90
2022/07/06 01:32:59;;;;;;;6.40;4.13;;;16.70;68.30;;;;;;4958839;28;20557;-90
2022/07/06 01:35:29;;;;;;;6.20;4.47;;;16.70;68.50;;;;;;4978962;28;20224;-90
2022/07/06 01:37:54;;;;;;;7.50;4.15;;;16.70;68.80;;;;;;4981019;28;20214;-90
2022/07/06 01:40:22;;;;;;;5.27;3.53;;;16.70;69.00;;;;;;4981479;28;20184;-90
2022/07/06 01:42:48;;;;;;;5.57;3.72;;;16.60;69.00;;;;;;4964260;28;20200;-90
2022/07/06 01:45:14;;;;;;;6.53;4.97;;;16.60;69.10;;;;;;4977710;28;20755;-90
2022/07/06 01:47:39;;;;;;;10.17;4.40;;;16.60;69.50;;;;;;4984644;28;20184;-90
2022/07/06 01:50:08;;;;;;;4.90;4.27;;;16.60;69.70;;;;;;4977632;28;20563;-90
2022/07/06 01:52:34;;;;;;;7.03;4.55;;;16.60;70.00;;;;;;4969542;28;20736;-90
2022/07/06 01:55:00;;;;;;;7.03;4.65;;;16.60;69.50;;;;;;4955692;28;20219;-90
2022/07/06 01:57:25;;;;;;;9.57;5.27;;;16.60;69.50;;;;;;4956363;28;20181;-90
2022/07/06 01:59:51;;;;;;;5.27;4.43;;;16.50;69.60;;;;;;4938815;29;20188;-89
2022/07/06 02:02:17;;;;;;;5.63;4.93;;;16.60;69.10;;;;;;4955165;28;20683;-90
2022/07/06 02:04:43;;;;;;;8.75;4.47;;;16.60;69.00;;;;;;4954975;28;20798;-89
2022/07/06 02:07:09;;;;;;;5.80;5.03;;;16.60;69.50;;;;;;4954898;28;20284;-90
2022/07/06 02:09:34;;;;;;;6.30;5.17;;;16.60;69.20;;;;;;4938870;29;20189;-90
2022/07/06 02:12:00;;;;;;;7.77;5.30;;;16.60;69.20;;;;;;4955484;28;20184;-90
2022/07/06 02:14:26;;;;;;;5.83;3.90;;;16.60;69.60;;;;;;4954985;28;20259;-90
2022/07/06 02:16:51;;;;;;;8.30;5.40;;;16.60;69.50;;;;;;4955327;28;20197;-90
2022/07/06 02:19:17;;;;;;;6.40;5.03;;;16.60;69.70;;;;;;4955710;28;20232;-90
2022/07/06 02:21:43;;;;;;;9.33;5.60;;;16.50;70.30;;;;;;4955098;28;20260;-90
2022/07/06 02:24:08;;;;;;;6.53;5.07;;;16.50;70.70;;;;;;4955462;28;20435;-90
2022/07/06 02:26:34;;;;;;;10.33;6.03;;;16.50;71.00;;;;;;4939381;29;20230;-90
2022/07/06 02:29:00;;;;;;;13.83;6.60;;;16.50;71.20;;;;;;4954921;28;20295;-90
2022/07/06 02:31:25;;;;;;;7.97;5.63;;;16.50;71.00;;;;;;4954514;28;20737;-90
2022/07/06 02:33:52;;;;;;;11.50;6.30;;;16.50;70.90;;;;;;4954437;28;20259;-90
2022/07/06 02:36:18;;;;;;;10.77;6.57;;;16.50;71.00;;;;;;4961872;28;20221;-90
2022/07/06 02:38:44;;;;;;;8.13;6.13;;;16.50;70.80;;;;;;4974991;28;20682;-91
2022/07/06 02:41:09;;;;;;;8.30;6.10;;;16.50;70.70;;;;;;4974699;28;20431;-90
2022/07/06 02:43:38;;;;;;;8.70;6.60;;;16.60;70.80;;;;;;4974695;28;20184;-91
2022/07/06 02:46:03;;;;;;;11.48;6.82;;;16.50;70.80;;;;;;4975503;28;20287;-91
2022/07/06 02:48:29;;;;;;;8.13;5.57;;;16.50;70.80;;;;;;4974913;28;20230;-91
2022/07/06 02:50:55;;;;;;;9.17;6.50;;;16.50;71.00;;;;;;4975096;28;20176;-90
2022/07/06 02:53:20;;;;;;;10.10;7.10;;;16.50;71.00;;;;;;4974916;28;20208;-91
2022/07/06 02:55:46;;;;;;;8.50;6.17;;;16.50;71.30;;;;;;4974668;28;21042;-91
2022/07/06 02:58:12;;;;;;;9.53;6.33;;;16.50;71.20;;;;;;4975447;28;20551;-91
2022/07/06 03:00:39;;;;;;;8.57;6.10;;;16.50;71.20;;;;;;4977006;28;20648;-91
2022/07/06 03:03:04;;;;;;;13.57;6.05;;;16.50;71.10;;;;;;4975750;28;20180;-91
2022/07/06 03:05:30;;;;;;;8.50;5.47;;;16.50;70.90;;;;;;4975263;28;20223;-91
2022/07/06 03:07:55;;;;;;;6.57;5.93;;;16.50;71.00;;;;;;4975436;28;20327;-91
2022/07/06 03:10:21;;;;;;;7.57;5.77;;;16.60;70.90;;;;;;4974997;28;20226;-91
2022/07/06 03:12:47;;;;;;;9.13;5.73;;;16.60;70.60;;;;;;4970498;28;20194;-91
2022/07/06 03:15:13;;;;;;;8.70;6.57;;;16.60;70.50;;;;;;4990028;28;20633;-91
2022/07/06 03:17:38;;;;;;;6.23;5.30;;;16.60;70.80;;;;;;4975129;28;20259;-91
2022/07/06 03:20:05;;;;;;;9.13;5.23;;;16.60;70.80;;;;;;4974655;28;20641;-91
2022/07/06 03:22:31;;;;;;;8.38;5.40;;;16.60;70.90;;;;;;4974585;28;20419;-91
2022/07/06 03:24:57;;;;;;;6.95;5.22;;;16.60;70.70;;;;;;4974259;28;20675;-90
2022/07/06 03:27:23;;;;;;;8.30;5.67;;;16.60;70.60;;;;;;4974032;28;20187;-91
2022/07/06 03:29:49;;;;;;;6.20;5.10;;;16.70;70.70;;;;;;4974662;28;20207;-92
2022/07/06 03:32:14;;;;;;;13.43;5.27;;;16.60;70.30;;;;;;4974835;28;20674;-92
2022/07/06 03:34:40;;;;;;;5.70;4.93;;;16.60;70.20;;;;;;4963639;28;20215;-91
2022/07/06 03:37:06;;;;;;;6.90;4.93;;;16.60;70.10;;;;;;4955825;28;20774;-91
2022/07/06 03:39:32;;;;;;;5.70;5.03;;;16.60;70.20;;;;;;4955579;28;20267;-91
2022/07/06 03:41:58;;;;;;;7.43;5.30;;;16.60;70.20;;;;;;4955620;28;20239;-91
2022/07/06 03:44:24;;;;;;;8.30;5.50;;;16.60;70.20;;;;;;4955988;28;20271;-91
2022/07/06 03:46:57;;;;;;;8.87;5.20;;;16.60;69.70;;;;;;4956670;28;20444;-91
2022/07/06 03:49:26;;;;;;;9.45;5.80;;;16.60;69.50;;;;;;4939407;29;20439;-90
2022/07/06 03:51:52;;;;;;;8.82;5.80;;;16.60;69.10;;;;;;4964259;28;20676;-91
2022/07/06 03:54:20;;;;;;;5.70;5.20;;;16.60;68.90;;;;;;4975336;28;20227;-90
2022/07/06 03:56:45;;;;;;;7.47;5.15;;;16.60;69.20;;;;;;4976890;28;20200;-91
2022/07/06 03:59:11;;;;;;;5.53;5.03;;;16.70;69.30;;;;;;4978150;28;20318;-90
2022/07/06 04:01:37;;;;;;;10.63;6.20;;;16.70;69.30;;;;;;4977872;28;20248;-89
2022/07/06 04:04:03;;;;;;;9.27;5.67;;;16.70;69.30;;;;;;4977959;28;20190;-90
2022/07/06 04:06:30;;;;;;;8.53;5.80;;;16.70;69.20;;;;;;4977908;28;20471;-90
2022/07/06 04:08:55;;;;;;;12.05;6.28;;;16.70;69.10;;;;;;4979130;28;20176;-91
2022/07/06 04:11:21;;;;;;;12.07;5.67;;;16.60;69.10;;;;;;4979329;28;20242;-90
2022/07/06 04:13:47;;;;;;;7.30;5.97;;;16.60;69.20;;;;;;4977296;28;20184;-90
2022/07/06 04:16:12;;;;;;;7.43;5.80;;;16.60;69.40;;;;;;4976855;28;20199;-91
2022/07/06 04:18:38;;;;;;;9.40;5.57;;;16.70;69.50;;;;;;4977904;28;20187;-91
2022/07/06 04:21:04;;;;;;;7.93;6.00;;;16.70;69.20;;;;;;4977033;28;20247;-91
2022/07/06 04:23:30;;;;;;;7.03;5.37;;;16.80;69.20;;;;;;4978441;28;20184;-92
2022/07/06 04:25:56;;;;;;;7.13;6.10;;;16.80;68.90;;;;;;4977262;28;20207;-90
2022/07/06 04:28:22;;;;;;;7.13;5.18;;;16.80;68.90;;;;;;4977586;28;20506;-91
2022/07/06 04:30:48;;;;;;;8.53;5.90;;;16.80;69.20;;;;;;4977210;28;20209;-91
2022/07/06 04:33:14;;;;;;;10.67;5.93;;;17.00;68.70;;;;;;4979160;28;20274;-91
2022/07/06 04:35:39;;;;;;;6.90;5.13;;;16.90;68.80;;;;;;4977286;28;20545;-91
2022/07/06 04:38:05;;;;;;;9.37;6.07;;;16.90;68.80;;;;;;4977380;28;20194;-91
2022/07/06 04:40:31;;;;;;;7.63;5.43;;;17.00;69.00;;;;;;4978065;28;20176;-90
2022/07/06 04:42:57;;;;;;;10.00;6.05;;;17.00;68.80;;;;;;4978132;28;20187;-90
2022/07/06 04:45:22;;;;;;;7.70;5.97;;;17.10;68.80;;;;;;4977954;28;20210;-90
2022/07/06 04:47:48;;;;;;;9.90;5.97;;;17.20;68.10;;;;;;4976938;28;20208;-90
2022/07/06 04:50:14;;;;;;;7.30;6.30;;;17.20;67.90;;;;;;4977346;28;20203;-91
2022/07/06 04:52:39;;;;;;;6.87;6.17;;;17.30;68.20;;;;;;4978868;28;20237;-91
2022/07/06 04:55:06;;;;;;;11.20;6.33;;;17.30;68.20;;;;;;4977638;28;20219;-90
2022/07/06 04:57:32;;;;;;;10.48;6.68;;;17.20;68.50;;;;;;4977021;28;20180;-91
2022/07/06 04:59:58;;;;;;;9.15;6.38;;;17.10;68.70;;;;;;4976454;28;20246;-91
2022/07/06 05:02:23;;;;;;;13.70;6.43;;;17.10;69.00;;;;;;4978251;28;20615;-91
2022/07/06 05:04:49;;;;;;;9.70;6.50;;;17.20;68.70;;;;;;4995308;28;20199;-90
2022/07/06 05:07:15;;;;;;;11.00;6.00;;;17.20;68.70;;;;;;4990293;28;20226;-90
2022/07/06 05:09:41;;;;;;;9.30;6.40;;;17.30;68.70;;;;;;4976729;28;20274;-90
2022/07/06 05:12:07;;;;;;;8.40;6.87;;;17.30;68.20;;;;;;4978750;28;20188;-90
2022/07/06 05:14:33;;;;;;;9.40;7.68;;;17.40;68.10;;;;;;4976988;28;20265;-90
2022/07/06 05:16:59;;;;;;;10.95;6.35;;;17.30;68.10;;;;;;4975904;28;20180;-90
2022/07/06 05:19:25;;;;;;;11.47;8.20;;;17.50;68.40;;;;;;4975221;28;20218;-90
2022/07/06 05:22:09;;;;;;;12.87;7.90;;;17.50;67.70;;;;;;4977962;28;20613;-91
2022/07/06 05:24:35;;;;;;;12.30;6.95;;;17.70;67.40;;;;;;4975576;28;20230;-91
2022/07/06 05:27:00;;;;;;;8.50;5.60;;;18.00;66.30;;;;;;4959259;28;20606;-90
2022/07/06 05:29:26;;;;;;;11.10;6.77;;;18.30;64.60;;;;;;4975206;28;20207;-90
2022/07/06 05:31:51;;;;;;;10.90;6.20;;;18.90;62.80;;;;;;4974895;28;20180;-91
2022/07/06 05:34:17;;;;;;;12.87;6.13;;;19.30;60.80;;;;;;4960256;28;20204;-91
2022/07/06 05:36:43;;;;;;;8.60;5.80;;;20.00;58.90;;;;;;4975325;28;20200;-91
2022/07/06 05:39:09;;;;;;;10.90;6.80;;;20.80;56.60;;;;;;4976721;28;20183;-91
2022/07/06 05:41:35;;;;;;;12.50;6.00;;;20.90;54.80;;;;;;4976393;28;20502;-91
2022/07/06 05:44:00;;;;;;;9.83;5.30;;;20.60;55.00;;;;;;4975668;28;20609;-90
2022/07/06 05:46:26;;;;;;;15.10;7.03;;;20.70;55.50;;;;;;4975549;28;20207;-91
2022/07/06 05:51:36;;;;;;;15.83;5.93;;;21.40;53.40;;;;;;4976718;28;20167;-91
2022/07/06 05:54:16;;;;;;;6.57;4.60;;;21.40;53.00;;;;;;4974328;28;20828;-91
2022/07/06 05:56:42;;;;;;;8.43;4.70;;;21.90;51.20;;;;;;4974767;28;20196;-92
2022/07/06 05:59:07;;;;;;;6.13;4.20;;;22.00;49.60;;;;;;4974934;28;20477;-90
2022/07/06 06:01:33;;;;;;;7.47;4.57;;;22.50;49.10;;;;;;4974762;28;20415;-90
2022/07/06 06:04:01;;;;;;;6.37;4.17;;;23.10;47.60;;;;;;4975013;28;20197;-90
2022/07/06 06:06:27;;;;;;;7.87;3.83;;;22.80;47.20;;;;;;4974489;28;20224;-90
2022/07/06 06:09:03;;;;;;;8.87;4.10;;;23.00;47.40;;;;;;4974155;28;20803;-90
2022/07/06 06:11:29;;;;;;;11.20;4.77;;;23.10;46.50;;;;;;4973986;28;20277;-90
2022/07/06 06:13:54;;;;;;;7.33;4.20;;;23.30;45.90;;;;;;4974435;28;20514;-90
2022/07/06 06:16:20;;;;;;;7.03;4.10;;;23.50;45.90;;;;;;4976586;28;20208;-90
2022/07/06 06:18:46;;;;;;;7.67;3.50;;;23.40;45.20;;;;;;4973861;28;20237;-90
2022/07/06 06:21:12;;;;;;;8.53;3.50;;;23.70;45.20;;;;;;4982006;28;20574;-90
2022/07/06 06:23:37;;;;;;;3.77;2.90;;;23.90;43.60;;;;;;4983348;28;20179;-91
2022/07/06 06:26:03;;;;;;;5.83;3.90;;;24.00;43.60;;;;;;4985049;28;20440;-90
2022/07/06 06:28:29;;;;;;;9.87;3.30;;;24.60;42.50;;;;;;4976692;28;20651;-90
2022/07/06 06:30:55;;;;;;;5.50;2.60;;;24.40;41.70;;;;;;4975679;28;20876;-90
2022/07/06 06:33:21;;;;;;;8.07;2.93;;;24.70;41.20;;;;;;4975428;28;20722;-90
2022/07/06 06:35:51;;;;;;;6.67;2.20;;;24.20;40.20;;;;;;4975352;28;20722;-88
2022/07/06 06:38:19;;;;;;;7.53;2.87;;;24.30;40.90;;;;;;4973749;28;20498;-89
2022/07/06 06:40:45;;;;;;;11.13;3.07;;;24.10;40.70;;;;;;4974070;28;20501;-89
2022/07/06 06:43:45;;;;;;;6.63;2.20;;;24.10;41.00;;;;;;4973959;28;20411;-89
2022/07/06 06:46:11;;;;;;;5.10;2.00;;;24.50;40.40;;;;;;4973901;28;20785;-89
2022/07/06 06:48:37;;;;;;;2.83;1.50;;;23.80;40.40;;;;;;4974099;28;20422;-89
2022/07/06 06:51:04;;;;;;;4.20;1.87;;;23.90;40.70;;;;;;4974338;28;20419;-87
2022/07/06 06:53:30;;;;;;;4.53;1.53;;;23.70;39.50;;;;;;4977234;28;20232;-89
2022/07/06 06:55:55;;;;;;;2.63;1.40;;;23.20;39.00;;;;;;4993390;28;20475;-89
2022/07/06 06:58:22;;;;;;;3.77;1.30;;;22.90;39.70;;;;;;4984119;28;20185;-88
2022/07/06 07:00:48;;;;;;;3.27;1.83;;;22.90;39.60;;;;;;4978110;28;20191;-89
2022/07/06 07:03:14;;;;;;;7.90;1.87;;;22.70;41.00;;;;;;4975940;28;20930;-89
2022/07/06 07:05:39;;;;;;;4.30;1.90;;;22.80;42.60;;;;;;4975296;28;20471;-89
2022/07/06 07:08:05;;;;;;;3.20;1.40;;;23.10;42.50;;;;;;4979873;28;20203;-89
2022/07/06 07:10:32;;;;;;;2.50;1.90;;;23.30;42.00;;;;;;4962168;28;20179;-89
2022/07/06 07:13:19;;;;;;;3.30;2.00;;;22.90;42.00;;;;;;4974835;28;20448;-90
2022/07/06 07:15:45;;;;;;;3.53;2.00;;;22.80;42.60;;;;;;4975695;28;20466;-88
2022/07/06 07:18:11;;;;;;;4.37;1.80;;;22.70;42.30;;;;;;4974544;28;20452;-89
2022/07/06 07:20:37;;;;;;;2.80;1.97;;;22.90;43.00;;;;;;4975238;28;20195;-89
2022/07/06 07:23:02;;;;;;;4.03;1.90;;;22.90;42.20;;;;;;4974090;28;20180;-89
2022/07/06 07:25:28;;;;;;;3.13;1.83;;;22.80;42.20;;;;;;4974444;28;20196;-89
2022/07/06 07:27:54;;;;;;;3.97;1.70;;;23.00;42.70;;;;;;4973328;28;20187;-89
2022/07/06 07:30:20;;;;;;;10.33;2.23;;;23.10;42.20;;;;;;4974175;28;20649;-89
2022/07/06 07:32:46;;;;;;;3.30;2.20;;;22.70;43.00;;;;;;4977184;28;20179;-89
2022/07/06 07:35:15;;;;;;;3.83;2.17;;;22.70;43.30;;;;;;4976534;28;20498;-88
2022/07/06 07:37:41;;;;;;;5.00;2.30;;;23.20;41.80;;;;;;4977068;28;20198;-89
2022/07/06 07:40:08;;;;;;;7.03;2.53;;;22.50;43.60;;;;;;4976822;28;20932;-89
2022/07/06 07:42:33;;;;;;;5.00;2.33;;;22.00;44.60;;;;;;4976690;28;20595;-88
2022/07/06 07:44:59;;;;;;;2.70;1.80;;;21.90;46.10;;;;;;4976744;28;20439;-88
2022/07/06 07:47:25;;;;;;;3.90;2.40;;;21.80;47.10;;;;;;4977029;28;20809;-88
2022/07/06 07:49:50;;;;;;;5.63;2.00;;;21.70;47.40;;;;;;4977111;28;20275;-88
2022/07/06 07:52:16;;;;;;;2.73;2.00;;;21.60;47.30;;;;;;4977764;28;20211;-88
2022/07/06 07:54:43;;;;;;;4.23;2.43;;;21.70;47.60;;;;;;4978102;28;20664;-89
2022/07/06 07:57:10;;;;;;;2.50;2.27;;;21.50;47.20;;;;;;4977246;28;20912;-89
2022/07/06 07:59:35;;;;;;;4.20;2.20;;;21.80;45.40;;;;;;4977535;28;20821;-89
2022/07/06 08:02:01;;;;;;;5.50;2.47;;;21.80;44.90;;;;;;4976734;28;20930;-88
2022/07/06 08:04:27;;;;;;;3.97;2.40;;;21.90;44.70;;;;;;4976868;28;20239;-89
2022/07/06 08:06:53;;;;;;;3.00;2.30;;;21.60;44.20;;;;;;4978192;28;20208;-88
2022/07/06 08:09:18;;;;;;;5.10;2.33;;;21.30;45.60;;;;;;4977386;28;20211;-88
2022/07/06 08:11:44;;;;;;;5.07;2.20;;;21.40;45.70;;;;;;4977218;28;20435;-88
2022/07/06 08:14:11;;;;;;;9.10;2.60;;;21.40;46.10;;;;;;4976975;28;20234;-90
2022/07/06 08:16:37;;;;;;;4.50;1.93;;;21.40;46.00;;;;;;4977410;28;20459;-90
2022/07/06 08:19:02;;;;;;;3.83;2.37;;;21.30;46.70;;;;;;4977984;28;20423;-91
2022/07/06 08:21:28;;;;;;;4.97;2.03;;;21.20;46.20;;;;;;4976976;28;20191;-90
2022/07/06 08:23:55;;;;;;;4.63;2.10;;;21.50;46.80;;;;;;4977025;28;20696;-90
2022/07/06 08:26:21;;;;;;;2.83;2.03;;;21.60;46.10;;;;;;4960961;28;20228;-90
2022/07/06 08:28:47;;;;;;;5.00;1.70;;;21.70;46.00;;;;;;4978459;28;20502;-87
2022/07/06 08:31:18;;;;;;;6.20;2.40;;;21.70;45.80;;;;;;4978378;28;20435;-87
2022/07/06 08:33:43;;;;;;;5.17;2.47;;;21.60;45.80;;;;;;4978278;28;20412;-87
2022/07/06 08:36:09;;;;;;;5.93;1.97;;;21.50;45.50;;;;;;4978728;28;20478;-87
2022/07/06 08:38:35;;;;;;;5.40;2.37;;;21.50;45.10;;;;;;4961900;28;20192;-88
2022/07/06 08:41:01;;;;;;;5.50;2.00;;;21.50;45.50;;;;;;4979792;28;20179;-88
2022/07/06 08:43:27;;;;;;;3.97;1.93;;;21.40;45.90;;;;;;4994173;28;20195;-87
2022/07/06 08:45:55;;;;;;;8.83;2.10;;;21.60;46.10;;;;;;4985882;28;20802;-87
2022/07/06 08:48:23;;;;;;;5.77;2.03;;;21.60;44.50;;;;;;4976949;28;20311;-89
2022/07/06 08:50:49;;;;;;;1.97;1.37;;;22.20;42.70;;;;;;4978792;28;20426;-89
2022/07/06 08:53:17;;;;;;;3.70;1.50;;;22.60;42.20;;;;;;4978990;28;20411;-89
2022/07/06 08:55:43;;;;;;;2.70;1.77;;;22.80;42.80;;;;;;4978604;28;20506;-88
2022/07/06 08:58:09;;;;;;;4.33;2.03;;;22.80;43.10;;;;;;4976601;28;20419;-90
2022/07/06 09:00:35;;;;;;;3.20;1.90;;;22.60;43.00;;;;;;4977782;28;20184;-89
2022/07/06 09:03:01;;;;;;;2.83;2.00;;;22.60;43.90;;;;;;4979765;28;20789;-90
2022/07/06 09:05:29;;;;;;;4.53;1.80;;;22.40;42.90;;;;;;4979224;28;20473;-90
2022/07/06 09:08:08;;;;;;;2.67;1.43;;;22.20;43.30;;;;;;4983156;28;20424;-89
2022/07/06 09:10:33;;;;;;;3.23;2.17;;;22.10;43.50;;;;;;4982592;28;20546;-87
2022/07/06 09:13:04;;;;;;;3.57;2.00;;;22.30;42.60;;;;;;4978393;28;20463;-87
2022/07/06 09:15:31;;;;;;;9.63;1.90;;;22.70;40.10;;;;;;4976388;28;20216;-87
2022/07/06 09:17:57;;;;;;;3.00;2.03;;;22.30;42.20;;;;;;4975836;28;20422;-87
2022/07/06 09:20:24;;;;;;;4.83;1.90;;;21.80;42.90;;;;;;4975820;28;20419;-87
2022/07/06 09:22:53;;;;;;;10.00;2.00;;;21.60;44.10;;;;;;5012444;23;20534;-90
2022/07/06 09:25:19;;;;;;;6.07;2.83;;;21.50;45.00;;;;;;4981237;28;20427;-90
2022/07/06 09:27:49;;;;;;;9.33;2.33;;;21.40;45.20;;;;;;4998038;28;20441;-90
2022/07/06 09:30:16;;;;;;;3.70;2.50;;;21.60;45.80;;;;;;4985564;28;20176;-91
2022/07/06 09:32:45;;;;;;;9.10;2.70;;;21.90;45.30;;;;;;4983252;28;20457;-90
2022/07/06 09:35:31;;;;;;;8.40;2.53;;;21.80;44.90;;;;;;4982728;28;20518;-90
2022/07/06 09:38:03;;;;;;;4.23;2.60;;;21.60;45.40;;;;;;4982796;28;20482;-90
2022/07/06 09:40:32;;;;;;;4.80;2.03;;;21.50;45.90;;;;;;4983606;28;20423;-90
2022/07/06 09:43:22;;;;;;;3.33;1.63;;;21.60;45.70;;;;;;4984895;28;20431;-90
2022/07/06 09:45:57;;;;;;;4.73;2.10;;;21.90;43.80;;;;;;4978359;28;20416;-90
2022/07/06 09:48:27;;;;;;;3.83;1.47;;;22.10;43.90;;;;;;4961043;28;20433;-90
2022/07/06 09:51:02;;;;;;;5.63;2.23;;;22.50;43.30;;;;;;4963771;28;20932;-90
2022/07/06 09:53:28;;;;;;;4.20;1.97;;;22.40;42.30;;;;;;4978702;28;21078;-90
2022/07/06 09:55:57;;;;;;;2.33;1.77;;;22.10;43.20;;;;;;4978606;28;20526;-89
2022/07/06 09:58:24;;;;;;;6.37;2.37;;;22.10;43.60;;;;;;4983041;28;20487;-90
2022/07/06 10:00:51;;;;;;;3.20;1.50;;;22.10;42.90;;;;;;4969374;28;20839;-91
2022/07/06 10:03:17;;;;;;;2.80;1.80;;;22.20;46.00;;;;;;4975567;28;20483;-90
2022/07/06 10:05:49;;;;;;;4.23;2.60;;;22.30;48.30;;;;;;4970187;28;20432;-90
2022/07/06 10:08:16;;;;;;;4.90;2.27;;;22.30;45.80;;;;;;4974504;28;20428;-90
2022/07/06 10:10:44;;;;;;;3.73;1.70;;;22.60;46.70;;;;;;4977275;28;20420;-91
2022/07/06 10:13:10;;;;;;;1.67;1.43;;;23.00;49.50;;;;;;4981878;28;20953;-90
2022/07/06 10:15:41;;;;;;;3.03;1.70;;;23.20;48.70;;;;;;4978093;28;20468;-90
2022/07/06 10:18:09;;;;;;;3.70;2.50;;;23.40;47.30;;;;;;4982577;28;20415;-91
2022/07/06 10:20:38;;;;;;;4.53;2.47;;;23.30;43.30;;;;;;4976290;28;20423;-90
2022/07/06 10:23:06;;;;;;;4.27;1.83;;;23.20;42.50;;;;;;4976309;28;20495;-91
2022/07/06 10:25:33;;;;;;;5.53;2.73;;;22.90;45.00;;;;;;4971115;28;20939;-91
2022/07/06 10:28:00;;;;;;;6.40;2.27;;;23.20;41.70;;;;;;4970501;28;20435;-90
2022/07/06 10:30:28;;;;;;;4.40;2.10;;;23.10;41.80;;;;;;4974954;28;20431;-91
2022/07/06 10:32:56;;;;;;;4.90;2.20;;;22.60;43.20;;;;;;4983181;28;20466;-91
2022/07/06 10:35:22;;;;;;;4.90;2.00;;;22.20;44.50;;;;;;4977795;28;20470;-91
2022/07/06 10:38:03;;;;;;;4.80;2.07;;;22.10;44.90;;;;;;4964051;28;20588;-90
2022/07/06 10:43:52;;;;;;;7.17;2.83;;;22.90;43.80;;;;;;4978106;28;20457;-89
2022/07/06 10:46:20;;;;;;;4.47;2.40;;;23.30;41.90;;;;;;4989584;28;20431;-90
2022/07/06 10:48:48;;;;;;;3.63;1.93;;;23.00;42.40;;;;;;4997587;28;20446;-89
2022/07/06 10:51:23;;;;;;;3.00;1.80;;;22.90;43.10;;;;;;4998045;28;20431;-88
2022/07/06 10:54:01;;;;;;;3.60;2.10;;;23.30;43.00;;;;;;4998100;28;20451;-90
2022/07/06 10:56:38;;;;;;;7.53;2.37;;;23.60;41.40;;;;;;4991651;28;20475;-89
2022/07/06 10:59:22;;;;;;;5.17;2.37;;;23.40;42.20;;;;;;4984725;28;20435;-90
2022/07/06 11:02:19;;;;;;;5.23;2.40;;;23.30;42.60;;;;;;4973658;28;20444;-90
2022/07/06 11:04:48;;;;;;;8.30;2.13;;;23.30;42.70;;;;;;4956563;28;20465;-90
2022/07/06 11:07:17;;;;;;;4.40;2.23;;;23.60;41.90;;;;;;4972730;28;20419;-89
2022/07/06 11:10:00;;;;;;;2.60;1.70;;;23.40;40.80;;;;;;4976828;28;20454;-89
2022/07/06 11:12:26;;;;;;;3.93;2.20;;;23.80;38.70;;;;;;4990095;28;20495;-89
2022/07/06 11:14:53;;;;;;;7.93;1.97;;;23.80;39.70;;;;;;4981763;28;20462;-90
2022/07/06 11:17:20;;;;;;;3.63;2.20;;;24.00;40.50;;;;;;4976324;28;20879;-89
2022/07/06 11:20:11;;;;;;;4.30;2.23;;;24.10;40.70;;;;;;4976304;28;20491;-90
2022/07/06 11:22:38;;;;;;;7.87;2.57;;;23.70;41.00;;;;;;4977830;28;20455;-90
2022/07/06 11:25:08;;;;;;;4.60;1.63;;;23.40;41.30;;;;;;4976714;28;20511;-90
2022/07/06 11:27:37;;;;;;;5.47;1.80;;;23.40;42.20;;;;;;4976691;28;20851;-92
2022/07/06 11:30:06;;;;;;;7.43;2.13;;;23.40;42.60;;;;;;4979523;28;20950;-91
2022/07/06 11:32:38;;;;;;;4.23;1.80;;;23.50;43.00;;;;;;4980109;28;21004;-90
2022/07/06 11:35:04;;;;;;;5.53;2.10;;;23.50;42.80;;;;;;4980475;28;20455;-90
2022/07/06 11:37:30;;;;;;;3.93;2.10;;;23.60;42.50;;;;;;4966835;28;20420;-90
2022/07/06 11:39:56;;;;;;;3.53;1.70;;;23.80;40.80;;;;;;4984494;28;20419;-91
2022/07/06 11:42:21;;;;;;;2.23;2.03;;;24.10;37.20;;;;;;4967471;28;20219;-90
2022/07/06 11:44:53;;;;;;;1.93;1.70;;;24.20;38.10;;;;;;4968705;28;20271;-90
2022/07/06 11:47:20;;;;;;;3.07;1.30;;;24.10;39.50;;;;;;4966365;28;20196;-90
2022/07/06 11:49:50;;;;;;;2.07;1.50;;;23.90;40.90;;;;;;4965716;28;20459;-90
2022/07/06 11:52:16;;;;;;;3.30;1.73;;;23.80;43.00;;;;;;4957739;28;20436;-90
2022/07/06 11:54:43;;;;;;;5.03;1.63;;;23.60;39.70;;;;;;4956798;29;20518;-90
2022/07/06 11:57:10;;;;;;;3.03;2.10;;;23.90;40.00;;;;;;4956262;28;20419;-91
2022/07/06 11:59:39;;;;;;;6.50;2.03;;;23.30;40.10;;;;;;4956499;28;20423;-91
2022/07/06 12:02:15;;;;;;;3.33;2.00;;;23.20;41.20;;;;;;4957492;28;20515;-90
2022/07/06 12:04:43;;;;;;;2.87;2.13;;;23.10;40.60;;;;;;4963753;28;20440;-90
2022/07/06 12:07:14;;;;;;;5.17;2.00;;;23.20;42.30;;;;;;4970112;28;20450;-91
2022/07/06 12:09:42;;;;;;;7.93;2.00;;;23.10;42.90;;;;;;4981626;28;20838;-90
2022/07/06 12:12:09;;;;;;;4.07;2.60;;;22.90;42.70;;;;;;4958439;28;20444;-90
2022/07/06 12:14:36;;;;;;;4.27;2.57;;;22.70;42.30;;;;;;4959109;28;20470;-90
2022/07/06 12:17:04;;;;;;;3.80;2.43;;;22.60;43.50;;;;;;4969134;28;20471;-89
2022/07/06 12:19:31;;;;;;;5.50;2.63;;;22.60;43.80;;;;;;4979093;28;20584;-89
2022/07/06 12:21:56;;;;;;;4.43;1.93;;;22.90;43.10;;;;;;4976797;28;20948;-89
2022/07/06 12:24:27;;;;;;;5.10;2.07;;;23.40;43.00;;;;;;4961106;28;20435;-89
2022/07/06 12:26:54;;;;;;;3.87;2.20;;;23.40;43.10;;;;;;4968469;28;20419;-89
2022/07/06 12:29:22;;;;;;;3.30;1.90;;;23.30;40.10;;;;;;4959716;28;20478;-89
2022/07/06 12:31:52;;;;;;;5.07;2.80;;;23.20;40.50;;;;;;4960085;28;20448;-90
2022/07/06 12:34:20;;;;;;;3.83;3.07;;;22.70;42.20;;;;;;4959652;28;20495;-88
2022/07/06 12:36:55;;;;;;;5.27;2.33;;;22.40;43.20;;;;;;4971146;28;20423;-88
2022/07/06 12:39:31;;;;;;;7.23;2.67;;;22.30;44.60;;;;;;4973146;28;21196;-89
2022/07/06 12:42:04;;;;;;;3.00;1.83;;;22.30;45.00;;;;;;4975601;28;20444;-89
2022/07/06 12:44:31;;;;;;;4.80;2.60;;;22.60;43.60;;;;;;4983391;28;20820;-88
2022/07/06 12:47:09;;;;;;;5.27;2.73;;;22.70;44.20;;;;;;4979162;28;20430;-89
2022/07/06 12:49:36;;;;;;;7.03;2.50;;;22.70;44.20;;;;;;4977932;28;20416;-89
2022/07/06 12:52:12;;;;;;;4.30;3.13;;;23.20;42.90;;;;;;4973244;28;20491;-90
2022/07/06 12:54:42;;;;;;;4.90;2.33;;;23.10;42.50;;;;;;4973404;28;20466;-89